createdAt,value
2022-11-26T00:00:27.882Z,98.30
2022-11-26T00:01:27.839Z,58.90
2022-11-26T00:02:27.963Z,66.70
2022-11-26T00:03:27.859Z,73.10
2022-11-26T00:04:27.809Z,94.10
2022-11-26T00:05:27.793Z,105.80
2022-11-26T00:06:27.776Z,62.80
2022-11-26T00:07:27.825Z,72.50
2022-11-26T00:08:27.773Z,70.70
2022-11-26T00:09:27.834Z,69.80
2022-11-26T00:10:27.753Z,116.50
2022-11-26T00:11:27.693Z,101.70
2022-11-26T00:12:27.702Z,70.50
2022-11-26T00:13:27.685Z,77.00
2022-11-26T00:14:27.667Z,74.40
2022-11-26T00:15:27.696Z,79.10
2022-11-26T00:16:27.722Z,118.80
2022-11-26T00:17:27.607Z,116.80
2022-11-26T00:18:27.619Z,62.20
2022-11-26T00:19:27.606Z,62.80
2022-11-26T00:20:27.617Z,53.70
2022-11-26T00:21:27.593Z,99.40
2022-11-26T00:22:27.596Z,102.60
2022-11-26T00:23:27.547Z,58.30
2022-11-26T00:24:27.566Z,79.40
2022-11-26T00:25:27.494Z,89.20
2022-11-26T00:26:27.542Z,78.30
2022-11-26T00:27:29.051Z,125.40
2022-11-26T00:28:27.494Z,101.10
2022-11-26T00:29:27.488Z,73.30
2022-11-26T00:30:27.472Z,71.20
2022-11-26T00:31:27.474Z,87.50
2022-11-26T00:32:27.474Z,94.50
2022-11-26T00:33:27.552Z,101.60
2022-11-26T00:34:27.413Z,74.80
2022-11-26T00:35:27.401Z,81.70
2022-11-26T00:36:27.411Z,84.00
2022-11-26T00:37:27.361Z,111.30
2022-11-26T00:38:27.381Z,117.60
2022-11-26T00:39:27.365Z,80.50
2022-11-26T00:40:27.347Z,103.10
2022-11-26T00:41:27.323Z,80.30
2022-11-26T00:42:27.314Z,106.40
2022-11-26T00:43:27.293Z,103.60
2022-11-26T00:44:27.308Z,56.60
2022-11-26T00:45:27.348Z,76.70
2022-11-26T00:46:27.274Z,71.70
2022-11-26T00:47:27.197Z,108.90
2022-11-26T00:48:27.216Z,92.10
2022-11-26T00:49:27.204Z,67.70
2022-11-26T00:50:27.213Z,114.20
2022-11-26T00:51:27.202Z,105.20
2022-11-26T00:52:27.183Z,83.90
2022-11-26T00:53:27.155Z,128.40
2022-11-26T00:54:27.138Z,190.20
2022-11-26T00:55:27.125Z,94.40
2022-11-26T00:56:27.136Z,112.70
2022-11-26T00:57:27.115Z,95.50
2022-11-26T00:58:27.117Z,113.80
2022-11-26T00:59:27.048Z,214.40
2022-11-26T01:00:27.058Z,165.00
2022-11-26T01:01:27.104Z,107.60
2022-11-26T01:02:27.062Z,112.90
2022-11-26T01:03:27.067Z,114.20
2022-11-26T01:04:27.040Z,146.10
2022-11-26T01:05:26.970Z,204.00
2022-11-26T01:06:27.007Z,178.90
2022-11-26T01:07:26.998Z,122.20
2022-11-26T01:08:26.951Z,135.40
2022-11-26T01:09:26.978Z,136.10
2022-11-26T01:10:26.932Z,133.50
2022-11-26T01:11:27.037Z,227.50
2022-11-26T01:12:26.931Z,182.00
2022-11-26T01:13:26.867Z,115.00
2022-11-26T01:14:26.910Z,122.80
2022-11-26T01:15:26.877Z,229.90
2022-11-26T01:16:26.893Z,85.50
2022-11-26T01:17:26.840Z,97.10
2022-11-26T01:18:26.829Z,103.60
2022-11-26T01:19:26.810Z,165.40
2022-11-26T01:20:26.831Z,199.50
2022-11-26T01:21:26.894Z,106.90
2022-11-26T01:22:26.775Z,107.40
2022-11-26T01:23:26.770Z,118.00
2022-11-26T01:24:26.771Z,168.40
2022-11-26T01:25:26.705Z,174.70
2022-11-26T01:26:26.741Z,98.70
2022-11-26T01:27:26.724Z,111.00
2022-11-26T01:28:26.694Z,102.40
2022-11-26T01:29:26.681Z,176.90
2022-11-26T01:30:26.670Z,184.10
2022-11-26T01:31:26.718Z,99.40
2022-11-26T01:32:29.541Z,108.60
2022-11-26T01:33:26.635Z,102.30
2022-11-26T01:34:26.643Z,125.60
2022-11-26T01:35:26.582Z,158.70
2022-11-26T01:36:26.708Z,110.30
2022-11-26T01:37:26.574Z,111.90
2022-11-26T01:38:26.609Z,116.20
2022-11-26T01:39:26.549Z,111.00
2022-11-26T01:40:26.541Z,136.80
2022-11-26T01:41:26.536Z,168.90
2022-11-26T01:42:26.521Z,91.40
2022-11-26T01:43:26.497Z,114.30
2022-11-26T01:44:26.516Z,120.50
2022-11-26T01:45:26.646Z,110.10
2022-11-26T01:46:26.514Z,191.10
2022-11-26T01:47:26.420Z,136.40
2022-11-26T01:48:26.431Z,140.40
2022-11-26T01:49:26.425Z,116.90
2022-11-26T01:50:26.411Z,127.40
2022-11-26T01:51:26.529Z,277.10
2022-11-26T01:52:26.422Z,145.80
2022-11-26T01:53:26.342Z,119.40
2022-11-26T01:54:26.360Z,124.90
2022-11-26T01:55:26.339Z,120.20
2022-11-26T01:56:26.359Z,162.50
2022-11-26T01:57:26.342Z,121.70
2022-11-26T01:58:26.341Z,116.20
2022-11-26T01:59:28.813Z,108.10
2022-11-26T02:00:26.284Z,135.40
2022-11-26T02:01:26.418Z,136.90
2022-11-26T02:02:26.289Z,155.20
2022-11-26T02:03:26.292Z,115.60
2022-11-26T02:04:27.359Z,124.50
2022-11-26T02:05:26.191Z,124.80
2022-11-26T02:06:26.231Z,186.70
2022-11-26T02:07:26.231Z,155.70
2022-11-26T02:08:26.175Z,101.70
2022-11-26T02:09:30.213Z,110.70
2022-11-26T02:10:26.157Z,105.70
2022-11-26T02:11:26.143Z,170.30
2022-11-26T02:12:26.155Z,175.20
2022-11-26T02:13:26.105Z,105.30
2022-11-26T02:14:26.133Z,129.40
2022-11-26T02:15:26.179Z,127.20
2022-11-26T02:16:26.103Z,150.80
2022-11-26T02:17:26.068Z,220.90
2022-11-26T02:18:26.051Z,89.90
2022-11-26T02:19:26.034Z,94.60
2022-11-26T02:20:26.054Z,103.40
2022-11-26T02:21:26.043Z,134.00
2022-11-26T02:22:26.025Z,147.80
2022-11-26T02:23:29.860Z,104.60
2022-11-26T02:24:25.979Z,106.80
2022-11-26T02:25:25.966Z,131.10
2022-11-26T02:26:25.976Z,145.80
2022-11-26T02:27:26.009Z,143.30
2022-11-26T02:28:25.928Z,90.70
2022-11-26T02:29:26.253Z,102.40
2022-11-26T02:30:25.901Z,98.00
2022-11-26T02:32:36.174Z,112.40
2022-11-26T02:33:36.084Z,110.80
2022-11-26T02:34:37.997Z,119.90
2022-11-26T02:35:36.055Z,119.90
2022-11-26T02:36:36.098Z,130.50
2022-11-26T02:37:36.060Z,194.00
2022-11-26T02:38:36.166Z,128.30
2022-11-26T02:39:36.031Z,134.40
2022-11-26T02:40:36.018Z,152.60
2022-11-26T02:41:35.975Z,216.70
2022-11-26T02:42:36.014Z,133.70
2022-11-26T02:43:35.975Z,151.70
2022-11-26T02:44:36.361Z,165.00
2022-11-26T02:45:35.979Z,250.20
2022-11-26T02:46:35.978Z,111.70
2022-11-26T02:47:35.918Z,152.50
2022-11-26T02:48:35.945Z,233.20
2022-11-26T02:49:35.907Z,85.00
2022-11-26T02:50:36.017Z,113.60
2022-11-26T02:51:35.895Z,126.00
2022-11-26T02:52:35.878Z,240.40
2022-11-26T02:53:35.831Z,213.80
2022-11-26T02:54:36.134Z,111.50
2022-11-26T02:55:35.809Z,142.30
2022-11-26T02:56:35.965Z,258.00
2022-11-26T02:57:35.795Z,142.80
2022-11-26T02:58:35.792Z,181.60
2022-11-26T02:59:35.757Z,183.30
2022-11-26T03:00:35.813Z,292.60
2022-11-26T03:01:35.801Z,285.90
2022-11-26T03:02:35.796Z,130.00
2022-11-26T03:03:35.786Z,161.30
2022-11-26T03:04:36.062Z,141.40
2022-11-26T03:05:35.673Z,142.40
2022-11-26T03:06:35.724Z,208.80
2022-11-26T03:07:35.714Z,136.80
2022-11-26T03:08:35.729Z,145.80
2022-11-26T03:09:35.658Z,139.40
2022-11-26T03:10:35.649Z,151.00
2022-11-26T03:11:35.747Z,283.50
2022-11-26T03:12:35.626Z,158.00
2022-11-26T03:13:35.560Z,194.60
2022-11-26T03:14:35.917Z,185.10
2022-11-26T03:15:35.612Z,184.00
2022-11-26T03:16:35.604Z,313.70
2022-11-26T03:17:35.539Z,296.60
2022-11-26T03:18:35.529Z,183.90
2022-11-26T03:19:35.512Z,218.60
2022-11-26T03:20:35.620Z,182.10
2022-11-26T03:21:35.523Z,256.40
2022-11-26T03:22:35.496Z,317.80
2022-11-26T03:23:35.517Z,149.10
2022-11-26T03:24:35.596Z,186.20
2022-11-26T03:25:35.446Z,214.60
2022-11-26T03:26:35.543Z,184.20
2022-11-26T03:27:35.420Z,307.00
2022-11-26T03:28:35.392Z,323.50
2022-11-26T03:29:35.435Z,169.10
2022-11-26T03:30:35.346Z,166.40
2022-11-26T03:31:35.414Z,187.90
2022-11-26T03:32:35.462Z,185.00
2022-11-26T03:33:35.364Z,326.30
2022-11-26T03:34:35.435Z,264.90
2022-11-26T03:35:35.344Z,189.60
2022-11-26T03:36:35.278Z,217.80
2022-11-26T03:37:35.299Z,201.60
2022-11-26T03:38:35.385Z,273.60
2022-11-26T03:39:35.261Z,264.20
2022-11-26T03:40:35.264Z,137.90
2022-11-26T03:41:35.256Z,167.50
2022-11-26T03:42:35.191Z,166.00
2022-11-26T03:43:35.238Z,215.60
2022-11-26T03:44:35.503Z,230.40
2022-11-26T03:45:35.236Z,131.70
2022-11-26T03:46:35.178Z,167.30
2022-11-26T03:47:35.195Z,171.20
2022-11-26T03:48:35.122Z,192.40
2022-11-26T03:49:35.131Z,258.80
2022-11-26T03:50:35.140Z,176.30
2022-11-26T03:51:35.091Z,175.80
2022-11-26T03:52:35.083Z,281.70
2022-11-26T03:53:35.098Z,187.30
2022-11-26T03:54:35.105Z,169.70
2022-11-26T03:55:35.068Z,170.60
2022-11-26T03:56:35.105Z,283.90
2022-11-26T03:57:35.014Z,270.50
2022-11-26T03:58:35.002Z,161.40
2022-11-26T03:59:34.991Z,186.50
2022-11-26T04:00:34.972Z,171.50
2022-11-26T04:01:35.076Z,271.00
2022-11-26T04:02:34.964Z,289.80
2022-11-26T04:03:34.945Z,177.50
2022-11-26T04:04:35.086Z,186.00
2022-11-26T04:05:34.942Z,175.10
2022-11-26T04:06:34.875Z,292.50
2022-11-26T04:07:35.013Z,222.40
2022-11-26T04:08:34.974Z,181.70
2022-11-26T04:09:34.876Z,266.10
2022-11-26T04:10:34.855Z,230.60
2022-11-26T04:11:34.857Z,170.80
2022-11-26T04:12:34.835Z,170.40
2022-11-26T04:13:34.843Z,280.30
2022-11-26T04:14:34.807Z,296.10
2022-11-26T04:15:34.820Z,161.50
2022-11-26T04:16:34.766Z,200.40
2022-11-26T04:17:34.747Z,167.90
2022-11-26T04:18:34.754Z,265.30
2022-11-26T04:19:34.738Z,306.80
2022-11-26T04:20:34.765Z,146.60
2022-11-26T04:21:34.721Z,176.50
2022-11-26T04:22:34.656Z,170.10
2022-11-26T04:23:34.722Z,255.90
2022-11-26T04:24:34.640Z,294.00
2022-11-26T04:25:34.660Z,153.80
2022-11-26T04:26:34.758Z,174.10
2022-11-26T04:27:34.644Z,177.40
2022-11-26T04:28:34.606Z,288.70
2022-11-26T04:29:34.613Z,296.60
2022-11-26T04:30:34.561Z,148.10
2022-11-26T04:31:34.626Z,181.80
2022-11-26T04:32:34.561Z,165.90
2022-11-26T04:33:34.553Z,275.50
2022-11-26T04:34:34.528Z,296.40
2022-11-26T04:35:34.558Z,163.90
2022-11-26T04:36:34.475Z,176.40
2022-11-26T04:37:34.502Z,281.90
2022-11-26T04:38:34.604Z,249.10
2022-11-26T04:39:34.462Z,172.60
2022-11-26T04:40:34.453Z,173.90
2022-11-26T04:41:34.469Z,276.10
2022-11-26T04:42:34.394Z,298.00
2022-11-26T04:43:34.440Z,147.60
2022-11-26T04:44:34.494Z,185.10
2022-11-26T04:45:34.409Z,181.00
2022-11-26T04:46:34.385Z,315.10
2022-11-26T04:47:35.533Z,312.10
2022-11-26T04:48:34.353Z,190.50
2022-11-26T04:49:34.350Z,200.30
2022-11-26T04:50:34.325Z,172.50
2022-11-26T04:51:34.315Z,275.00
2022-11-26T04:52:34.280Z,291.80
2022-11-26T04:53:34.303Z,174.30
2022-11-26T04:54:34.226Z,183.00
2022-11-26T04:55:34.263Z,268.80
2022-11-26T04:56:34.317Z,306.00
2022-11-26T04:57:34.218Z,225.50
2022-11-26T04:58:34.215Z,193.30
2022-11-26T04:59:34.193Z,176.50
2022-11-26T05:00:34.174Z,320.10
2022-11-26T05:01:34.255Z,319.50
2022-11-26T05:02:34.232Z,196.10
2022-11-26T05:03:34.186Z,216.90
2022-11-26T05:04:34.089Z,189.00
2022-11-26T05:05:34.139Z,323.70
2022-11-26T05:06:34.089Z,317.40
2022-11-26T05:07:34.209Z,174.40
2022-11-26T05:08:34.169Z,218.20
2022-11-26T05:09:34.060Z,323.50
2022-11-26T05:10:34.037Z,205.20
2022-11-26T05:11:34.040Z,188.60
2022-11-26T05:12:34.037Z,243.50
2022-11-26T05:13:34.038Z,316.40
2022-11-26T05:14:34.002Z,255.90
2022-11-26T05:15:34.013Z,199.50
2022-11-26T05:16:33.969Z,211.30
2022-11-26T05:17:33.945Z,327.20
2022-11-26T05:18:33.933Z,317.50
2022-11-26T05:19:33.929Z,199.30
2022-11-26T05:20:33.937Z,287.80
2022-11-26T05:21:33.919Z,261.40
2022-11-26T05:22:33.869Z,190.80
2022-11-26T05:23:33.928Z,201.50
2022-11-26T05:24:33.834Z,331.90
2022-11-26T05:25:33.873Z,335.80
2022-11-26T05:26:33.949Z,186.60
2022-11-26T05:27:33.823Z,223.40
2022-11-26T05:28:33.812Z,233.70
2022-11-26T05:29:34.101Z,309.00
2022-11-26T05:30:33.752Z,310.40
2022-11-26T05:31:33.812Z,195.70
2022-11-26T05:32:33.765Z,267.30
2022-11-26T05:33:33.757Z,338.60
2022-11-26T05:34:33.737Z,198.10
2022-11-26T05:35:33.725Z,192.70
2022-11-26T05:36:33.703Z,247.00
2022-11-26T05:37:33.721Z,313.60
2022-11-26T05:38:33.767Z,258.70
2022-11-26T05:39:33.656Z,199.90
2022-11-26T05:40:33.663Z,321.20
2022-11-26T05:41:33.666Z,282.80
2022-11-26T05:42:33.578Z,207.80
2022-11-26T05:43:33.624Z,194.30
2022-11-26T05:44:33.675Z,344.60
2022-11-26T05:45:33.614Z,322.70
2022-11-26T05:46:33.575Z,176.30
2022-11-26T05:47:33.566Z,203.60
2022-11-26T05:48:33.554Z,322.50
2022-11-26T05:49:33.553Z,331.30
2022-11-26T05:50:33.600Z,201.40
2022-11-26T05:51:33.517Z,204.80
2022-11-26T05:52:33.474Z,330.00
2022-11-26T05:53:33.470Z,217.30
2022-11-26T05:54:33.445Z,216.60
2022-11-26T05:55:33.459Z,309.90
2022-11-26T05:56:33.413Z,336.40
2022-11-26T05:57:33.426Z,284.00
2022-11-26T05:58:33.388Z,226.50
2022-11-26T05:59:33.383Z,198.20
2022-11-26T06:00:33.377Z,339.60
2022-11-26T06:01:33.405Z,369.60
2022-11-26T06:02:33.525Z,202.50
2022-11-26T06:03:33.465Z,260.30
2022-11-26T06:04:33.314Z,368.20
2022-11-26T06:05:33.322Z,192.40
2022-11-26T06:06:33.310Z,201.30
2022-11-26T06:07:33.368Z,308.10
2022-11-26T06:08:33.310Z,329.80
2022-11-26T06:09:33.290Z,175.10
2022-11-26T06:10:33.235Z,200.80
2022-11-26T06:11:33.224Z,237.70
2022-11-26T06:12:33.222Z,313.60
2022-11-26T06:13:33.234Z,333.70
2022-11-26T06:14:33.305Z,193.80
2022-11-26T06:15:33.209Z,201.60
2022-11-26T06:16:33.146Z,331.60
2022-11-26T06:17:33.175Z,335.60
2022-11-26T06:18:33.137Z,223.00
2022-11-26T06:19:33.133Z,210.60
2022-11-26T06:20:33.235Z,306.50
2022-11-26T06:21:33.122Z,198.90
2022-11-26T06:22:33.064Z,188.60
2022-11-26T06:23:33.182Z,270.30
2022-11-26T06:24:33.029Z,331.90
2022-11-26T06:25:33.064Z,242.50
2022-11-26T06:26:33.084Z,211.90
2022-11-26T06:27:33.025Z,186.00
2022-11-26T06:28:33.023Z,303.00
2022-11-26T06:29:33.028Z,284.70
2022-11-26T06:30:32.969Z,152.10
2022-11-26T06:31:33.104Z,191.90
2022-11-26T06:32:33.131Z,289.00
2022-11-26T06:33:32.946Z,179.90
2022-11-26T06:34:32.935Z,169.30
2022-11-26T06:35:32.923Z,205.90
2022-11-26T06:36:32.896Z,306.40
2022-11-26T06:37:32.917Z,280.30
2022-11-26T06:38:32.884Z,183.90
2022-11-26T06:39:32.897Z,316.40
2022-11-26T06:40:32.821Z,245.80
2022-11-26T06:41:32.822Z,181.20
2022-11-26T06:42:32.820Z,178.70
2022-11-26T06:43:32.847Z,294.90
2022-11-26T06:44:32.896Z,298.70
2022-11-26T06:45:32.875Z,174.70
2022-11-26T06:46:32.793Z,295.40
2022-11-26T06:47:32.779Z,266.50
2022-11-26T06:48:32.773Z,180.80
2022-11-26T06:49:32.779Z,207.00
2022-11-26T06:50:32.876Z,301.90
2022-11-26T06:51:32.741Z,303.90
2022-11-26T06:52:32.669Z,168.40
2022-11-26T06:53:32.692Z,185.40
2022-11-26T06:54:32.665Z,238.70
2022-11-26T06:55:32.645Z,279.50
2022-11-26T06:56:32.652Z,257.60
2022-11-26T06:57:32.653Z,172.40
2022-11-26T06:58:32.568Z,174.10
2022-11-26T06:59:32.598Z,258.00
2022-11-26T07:00:32.566Z,270.30
2022-11-26T07:01:32.655Z,151.20
2022-11-26T07:02:32.610Z,169.10
2022-11-26T07:03:33.565Z,187.40
2022-11-26T07:04:32.488Z,286.90
2022-11-26T07:05:32.819Z,271.50
2022-11-26T07:06:32.517Z,179.40
2022-11-26T07:07:32.540Z,180.40
2022-11-26T07:08:32.507Z,280.50
2022-11-26T07:09:32.477Z,278.90
2022-11-26T07:10:32.443Z,143.40
2022-11-26T07:11:32.524Z,209.40
2022-11-26T07:12:32.392Z,242.00
2022-11-26T07:13:32.393Z,166.80
2022-11-26T07:14:32.559Z,146.50
2022-11-26T07:15:32.764Z,257.90
2022-11-26T07:16:32.420Z,258.30
2022-11-26T07:17:32.349Z,129.60
2022-11-26T07:18:32.359Z,169.30
2022-11-26T07:19:32.322Z,223.00
2022-11-26T07:20:32.432Z,245.00
2022-11-26T07:21:32.361Z,277.00
2022-11-26T07:22:32.262Z,158.30
2022-11-26T07:23:32.387Z,163.40
2022-11-26T07:24:32.218Z,268.10
2022-11-26T07:25:32.237Z,264.00
2022-11-26T07:26:32.265Z,185.20
2022-11-26T07:27:32.259Z,170.00
2022-11-26T07:28:32.196Z,168.70
2022-11-26T07:29:32.208Z,270.40
2022-11-26T07:30:32.151Z,272.90
2022-11-26T07:31:32.186Z,150.80
2022-11-26T07:32:32.283Z,196.40
2022-11-26T07:33:32.128Z,191.40
2022-11-26T07:34:32.124Z,273.50
2022-11-26T07:35:32.099Z,268.80
2022-11-26T07:36:32.091Z,168.90
2022-11-26T07:37:32.055Z,168.40
2022-11-26T07:38:32.185Z,266.80
2022-11-26T07:39:32.032Z,255.90
2022-11-26T07:40:32.060Z,183.60
2022-11-26T07:41:32.029Z,169.00
2022-11-26T07:42:32.005Z,166.90
2022-11-26T07:43:32.022Z,235.90
2022-11-26T07:44:32.012Z,269.80
2022-11-26T07:45:31.954Z,152.10
2022-11-26T07:46:32.036Z,144.60
2022-11-26T07:47:31.950Z,219.70
2022-11-26T07:48:31.936Z,264.20
2022-11-26T07:49:31.876Z,220.30
2022-11-26T07:50:32.044Z,168.90
2022-11-26T07:51:31.866Z,170.10
2022-11-26T07:52:31.901Z,252.40
2022-11-26T07:53:31.895Z,279.80
2022-11-26T07:54:31.872Z,159.60
2022-11-26T07:55:31.843Z,174.80
2022-11-26T07:56:31.857Z,195.00
2022-11-26T07:57:31.791Z,266.60
2022-11-26T07:58:31.822Z,250.80
2022-11-26T07:59:31.757Z,171.70
2022-11-26T08:00:31.803Z,172.10
2022-11-26T08:01:31.793Z,280.80
2022-11-26T08:02:31.849Z,278.20
2022-11-26T08:03:31.699Z,149.70
2022-11-26T08:04:31.746Z,169.40
2022-11-26T08:05:31.694Z,220.50
2022-11-26T08:06:31.691Z,254.40
2022-11-26T08:07:31.715Z,267.10
2022-11-26T08:08:31.789Z,177.10
2022-11-26T08:09:31.641Z,167.80
2022-11-26T08:10:31.668Z,275.30
2022-11-26T08:11:31.591Z,265.10
2022-11-26T08:12:31.626Z,141.90
2022-11-26T08:13:31.578Z,161.10
2022-11-26T08:14:31.708Z,227.30
2022-11-26T08:15:31.567Z,270.40
2022-11-26T08:16:31.628Z,260.60
2022-11-26T08:17:31.512Z,167.70
2022-11-26T08:18:31.547Z,145.30
2022-11-26T08:19:31.510Z,231.60
2022-11-26T08:20:31.616Z,249.30
2022-11-26T08:21:31.453Z,153.50
2022-11-26T08:22:31.499Z,149.20
2022-11-26T08:23:31.425Z,223.90
2022-11-26T08:24:31.470Z,241.70
2022-11-26T08:25:31.431Z,216.90
2022-11-26T08:26:37.093Z,156.00
2022-11-26T08:27:32.408Z,166.80
2022-11-26T08:28:31.393Z,233.40
2022-11-26T08:29:31.345Z,239.10
2022-11-26T08:30:31.391Z,139.30
2022-11-26T08:31:31.387Z,156.00
2022-11-26T08:32:31.411Z,241.30
2022-11-26T08:33:31.315Z,241.90
2022-11-26T08:34:31.305Z,202.50
2022-11-26T08:35:59.171Z,149.80
2022-11-26T08:36:32.315Z,148.70
2022-11-26T08:37:31.237Z,218.70
2022-11-26T08:38:31.373Z,213.00
2022-11-26T08:39:31.209Z,143.60
2022-11-26T08:40:31.260Z,147.90
2022-11-26T08:41:31.205Z,175.90
2022-11-26T08:42:31.196Z,226.30
2022-11-26T08:43:58.713Z,248.60
2022-11-26T08:44:32.198Z,134.10
2022-11-26T08:45:31.098Z,144.80
2022-11-26T08:46:31.221Z,219.50
2022-11-26T08:47:31.079Z,223.50
2022-11-26T08:48:31.973Z,180.90
2022-11-26T08:49:31.078Z,166.70
2022-11-26T08:50:31.119Z,194.30
2022-11-26T08:51:31.022Z,228.00
2022-11-26T08:52:31.067Z,230.80
2022-11-26T08:53:31.017Z,137.50
2022-11-26T08:54:31.034Z,184.30
2022-11-26T08:55:53.288Z,237.50
2022-11-26T08:56:32.023Z,150.80
2022-11-26T08:57:30.954Z,146.50
2022-11-26T08:58:30.986Z,202.00
2022-11-26T08:59:30.919Z,213.70
2022-11-26T09:00:30.968Z,148.10
2022-11-26T09:01:30.966Z,137.60
2022-11-26T09:02:31.012Z,179.10
2022-11-26T09:03:30.900Z,203.00
2022-11-26T09:04:30.925Z,214.60
2022-11-26T09:05:30.867Z,135.80
2022-11-26T09:06:30.884Z,140.30
2022-11-26T09:07:30.870Z,195.60
2022-11-26T09:08:30.846Z,195.70
2022-11-26T09:09:30.810Z,137.00
2022-11-26T09:10:30.830Z,133.80
2022-11-26T09:11:30.781Z,190.70
2022-11-26T09:12:30.814Z,197.20
2022-11-26T09:13:30.763Z,169.80
2022-11-26T09:14:30.842Z,137.40
2022-11-26T09:15:30.729Z,143.40
2022-11-26T09:16:30.760Z,198.10
2022-11-26T09:17:30.676Z,197.60
2022-11-26T09:18:30.730Z,129.40
2022-11-26T09:19:30.646Z,146.00
2022-11-26T09:20:30.792Z,182.90
2022-11-26T09:21:30.652Z,190.90
2022-11-26T09:22:30.661Z,188.50
2022-11-26T09:23:30.597Z,192.50
2022-11-26T09:24:30.644Z,195.50
2022-11-26T09:25:30.605Z,194.90
2022-11-26T09:26:30.840Z,202.90
2022-11-26T09:27:30.709Z,195.00
2022-11-26T09:28:30.567Z,190.70
2022-11-26T09:29:30.509Z,188.60
2022-11-26T09:30:30.565Z,184.70
2022-11-26T09:31:30.539Z,186.20
2022-11-26T09:32:34.043Z,199.80
2022-11-26T09:33:30.488Z,201.10
2022-11-26T09:34:30.483Z,213.80
2022-11-26T09:35:30.458Z,126.50
2022-11-26T09:36:30.441Z,143.10
2022-11-26T09:37:30.402Z,156.10
2022-11-26T09:38:30.559Z,167.50
2022-11-26T09:39:30.382Z,169.40
2022-11-26T09:40:30.448Z,123.80
2022-11-26T09:41:30.475Z,174.70
2022-11-26T09:42:30.387Z,175.70
2022-11-26T09:43:30.360Z,130.20
2022-11-26T09:44:30.512Z,132.90
2022-11-26T09:45:30.395Z,165.20
2022-11-26T09:46:40.776Z,163.60
2022-11-26T09:47:31.366Z,164.60
2022-11-26T09:48:30.341Z,163.50
2022-11-26T09:49:30.366Z,159.80
2022-11-26T09:50:30.327Z,165.40
2022-11-26T09:51:30.254Z,164.50
2022-11-26T09:52:30.243Z,162.70
2022-11-26T09:53:30.189Z,154.90
2022-11-26T09:54:30.245Z,168.40
2022-11-26T09:55:30.194Z,138.10
2022-11-26T09:56:30.222Z,117.10
2022-11-26T09:57:30.141Z,126.80
2022-11-26T09:58:30.176Z,154.80
2022-11-26T09:59:30.110Z,156.50
2022-11-26T10:00:30.157Z,150.90
2022-11-26T10:01:30.155Z,118.10
2022-11-26T10:02:30.253Z,154.20
2022-11-26T10:03:30.103Z,155.00
2022-11-26T10:04:30.071Z,124.50
2022-11-26T10:05:30.033Z,133.30
2022-11-26T10:06:30.087Z,155.30
2022-11-26T10:07:30.077Z,144.60
2022-11-26T10:08:30.179Z,146.10
2022-11-26T10:09:30.000Z,113.80
2022-11-26T10:10:30.002Z,137.20
2022-11-26T10:11:29.953Z,151.60
2022-11-26T10:12:30.360Z,149.90
2022-11-26T10:13:29.951Z,110.50
2022-11-26T10:14:29.986Z,118.50
2022-11-26T10:15:29.930Z,137.00
2022-11-26T10:16:29.986Z,145.40
2022-11-26T10:17:29.880Z,146.30
2022-11-26T10:18:29.921Z,146.30
2022-11-26T10:19:29.847Z,149.60
2022-11-26T10:20:29.921Z,140.80
2022-11-26T10:21:57.049Z,138.10
2022-11-26T10:22:30.846Z,157.00
2022-11-26T10:23:29.813Z,142.00
2022-11-26T10:24:29.813Z,136.70
2022-11-26T10:25:29.765Z,135.80
2022-11-26T10:26:29.924Z,132.10
2022-11-26T10:27:29.765Z,134.50
2022-11-26T10:28:29.768Z,138.80
2022-11-26T10:29:29.708Z,136.90
2022-11-26T10:30:29.776Z,142.50
2022-11-26T10:31:29.719Z,152.80
2022-11-26T10:32:29.895Z,134.90
2022-11-26T10:33:29.705Z,127.70
2022-11-26T10:34:33.345Z,134.40
2022-11-26T10:35:30.655Z,129.80
2022-11-26T10:36:29.650Z,133.60
2022-11-26T10:37:29.609Z,142.30
2022-11-26T10:38:29.686Z,141.00
2022-11-26T10:39:29.581Z,122.70
2022-11-26T10:40:29.617Z,130.60
2022-11-26T10:41:29.609Z,128.40
2022-11-26T10:42:29.562Z,123.40
2022-11-26T10:43:29.553Z,120.80
2022-11-26T10:44:29.656Z,115.60
2022-11-26T10:45:29.513Z,113.40
2022-11-26T10:46:29.591Z,111.60
2022-11-26T10:47:29.471Z,114.60
2022-11-26T10:48:29.519Z,120.80
2022-11-26T10:49:29.469Z,117.10
2022-11-26T10:50:47.304Z,107.80
2022-11-26T10:51:30.452Z,110.20
2022-11-26T10:52:29.424Z,113.40
2022-11-26T10:53:29.387Z,112.50
2022-11-26T10:54:29.428Z,114.50
2022-11-26T10:55:29.367Z,111.30
2022-11-26T10:56:29.514Z,112.00
2022-11-26T10:57:29.365Z,123.90
2022-11-26T10:58:29.379Z,107.80
2022-11-26T10:59:29.305Z,108.50
2022-11-26T11:00:29.402Z,106.50
2022-11-26T11:01:29.329Z,105.80
2022-11-26T11:02:29.604Z,101.70
2022-11-26T11:03:59.771Z,104.30
2022-11-26T11:04:30.269Z,109.80
2022-11-26T11:05:29.227Z,96.50
2022-11-26T11:06:29.264Z,91.80
2022-11-26T11:07:29.241Z,99.20
2022-11-26T11:08:29.367Z,97.20
2022-11-26T11:09:29.206Z,101.50
2022-11-26T11:10:29.179Z,103.10
2022-11-26T11:11:29.167Z,93.70
2022-11-26T11:12:29.160Z,98.20
2022-11-26T11:13:29.130Z,94.50
2022-11-26T11:14:29.196Z,94.90
2022-11-26T11:15:29.110Z,89.20
2022-11-26T11:16:29.272Z,90.20
2022-11-26T11:17:29.078Z,93.10
2022-11-26T11:18:29.098Z,90.70
2022-11-26T11:19:29.052Z,98.30
2022-11-26T11:20:29.123Z,92.40
2022-11-26T11:21:29.028Z,92.50
2022-11-26T11:22:29.021Z,94.10
2022-11-26T11:23:46.109Z,96.90
2022-11-26T11:24:29.983Z,89.60
2022-11-26T11:25:28.943Z,90.70
2022-11-26T11:26:29.100Z,89.40
2022-11-26T11:27:28.921Z,90.80
2022-11-26T11:28:28.959Z,93.60
2022-11-26T11:29:28.919Z,90.50
2022-11-26T11:30:28.909Z,91.60
2022-11-26T11:31:28.960Z,91.80
2022-11-26T11:32:29.030Z,98.10
2022-11-26T11:33:29.161Z,94.10
2022-11-26T11:34:28.845Z,92.10
2022-11-26T11:35:28.847Z,87.60
2022-11-26T11:36:28.829Z,86.60
2022-11-26T11:37:28.786Z,85.00
2022-11-26T11:38:28.844Z,87.10
2022-11-26T11:39:28.754Z,88.80
2022-11-26T11:40:28.829Z,85.50
2022-11-26T11:41:28.785Z,88.90
2022-11-26T11:42:28.738Z,87.30
2022-11-26T11:43:28.742Z,87.70
2022-11-26T11:44:28.838Z,91.60
2022-11-26T11:45:28.692Z,89.60
2022-11-26T11:46:28.715Z,80.70
2022-11-26T11:47:28.682Z,85.00
2022-11-26T11:48:29.020Z,82.90
2022-11-26T11:49:28.677Z,79.40
2022-11-26T11:50:28.748Z,79.50
2022-11-26T11:51:28.658Z,82.30
2022-11-26T11:52:28.581Z,78.10
2022-11-26T11:53:28.591Z,74.30
2022-11-26T11:54:28.578Z,71.60
2022-11-26T11:55:28.571Z,74.60
2022-11-26T11:56:28.588Z,74.80
2022-11-26T11:57:28.570Z,76.40
2022-11-26T11:58:28.532Z,78.00
2022-11-26T11:59:28.539Z,79.40
2022-11-26T12:00:28.476Z,76.90
2022-11-26T12:01:28.483Z,82.10
2022-11-26T12:02:28.554Z,84.70
2022-11-26T12:03:28.490Z,85.00
2022-11-26T12:04:28.489Z,88.50
2022-11-26T12:05:28.433Z,82.10
2022-11-26T12:06:28.422Z,80.70
2022-11-26T12:07:28.468Z,77.80
2022-11-26T12:08:28.442Z,78.80
2022-11-26T12:09:28.402Z,78.30
2022-11-26T12:10:33.937Z,83.10
2022-11-26T12:11:29.381Z,80.60
2022-11-26T12:12:28.586Z,80.00
2022-11-26T12:13:28.346Z,79.50
2022-11-26T12:14:28.423Z,79.70
2022-11-26T12:15:28.297Z,80.10
2022-11-26T12:16:28.355Z,84.40
2022-11-26T12:17:33.069Z,88.30
2022-11-26T12:18:29.229Z,83.10
2022-11-26T12:19:28.254Z,86.20
2022-11-26T12:20:28.256Z,83.10
2022-11-26T12:21:28.243Z,84.50
2022-11-26T12:22:28.168Z,89.40
2022-11-26T12:23:28.216Z,82.90
2022-11-26T12:24:28.149Z,83.60
2022-11-26T12:25:31.100Z,83.30
2022-11-26T12:26:29.256Z,78.50
2022-11-26T12:27:28.151Z,80.60
2022-11-26T12:28:28.138Z,85.30
2022-11-26T12:29:28.138Z,86.10
2022-11-26T12:30:28.101Z,86.40
2022-11-26T12:31:28.122Z,79.80
2022-11-26T12:32:28.143Z,86.40
2022-11-26T12:33:28.053Z,86.60